Latest Weather Observations for Blackwater Airport

IDQ60801

Issued at 9:32 am EST Sunday 19 April 2015 (issued every 30 minutes, with the page automatically refreshed every 10 minutes)

About weather observations | Map of weather stations | Latest weather observations for QLD | Other Formats
Station Details ID: 035134 Name: BLACKWATER AIRPORT Lat: -23.60 Lon: 148.81 Height: 192.95 m
Data from the previous 72 hours. | See also: Recent months at Blackwater Airport
Date/Time
EST
Temp
°C
App
Temp
°C
Dew
Point
Rel
Hum
%
Delta-T
°C
Wind Press
QNH
hPa
Press
MSL
hPa
Rain
since 9 am
mm
Dir
 
Spd
km/h
Gust
km/h
Spd
kts
Gust
kts
19/09:30am 25.6 25.1 17.8 62 4.9 NE 17 24 9 13 1020.1 1019.2 0.0
19/09:00am 25.7 25.1 18.9 66 4.4 ENE 20 32 11 17 1020.0 1019.1 0.4
19/08:30am 24.9 25.1 19.3 71 3.6 ENE 17 20 9 11 1020.0 1019.1 0.4
19/08:00am 23.6 23.7 19.1 76 2.9 ENE 17 22 9 12 1019.4 1018.6 0.4
19/07:30am 23.0 23.2 19.4 80 2.3 ENE 17 22 9 12 1019.2 1018.4 0.4
19/07:00am 21.5 22.4 19.2 87 1.5 E 13 20 7 11 1018.6 1017.7 0.4
19/06:30am 20.8 21.5 18.9 89 1.2 ENE 13 17 7 9 1018.2 1017.3 0.4
19/06:00am 20.3 21.2 18.4 89 1.2 E 11 13 6 7 1018.2 1017.3 0.4
19/05:30am 20.4 21.0 18.5 89 1.2 ENE 13 15 7 8 1017.6 1016.7 0.4
19/05:00am 20.5 21.1 18.6 89 1.2 ENE 13 17 7 9 1017.4 1016.5 0.4
19/04:30am 20.5 21.5 18.6 89 1.2 ENE 11 15 6 8 1017.5 1016.6 0.4
19/04:00am 20.5 21.0 18.4 88 1.3 ENE 13 15 7 8 1017.4 1016.5 0.4
19/03:30am 20.8 21.0 18.6 87 1.4 ENE 15 20 8 11 1017.1 1016.2 0.4
19/03:00am 20.8 21.3 18.4 86 1.5 ENE 13 15 7 8 1017.4 1016.5 0.4
19/02:30am 20.4 21.1 18.0 86 1.5 ENE 11 15 6 8 1017.6 1016.7 0.4
19/02:00am 20.6 21.0 18.2 86 1.5 ENE 13 19 7 10 1017.8 1016.9 0.4
19/01:30am 20.8 21.1 18.0 84 1.7 ENE 13 19 7 10 1018.2 1017.3 0.4
19/01:00am 21.1 21.2 18.3 84 1.8 ENE 15 20 8 11 1018.4 1017.5 0.4
19/12:30am 21.3 21.4 18.3 83 1.9 ENE 15 20 8 11 1018.9 1018.1 0.4
19/12:00am 21.5 21.6 18.3 82 2.0 ENE 15 20 8 11 1018.8 1018.0 0.4
 
Date/Time
EST
Temp
°C
App
Temp
°C
Dew
Point
Rel
Hum
%
Delta-T
°C
Wind Press
QNH
hPa
Press
MSL
hPa
Rain
since 9 am
mm
Dir
 
Spd
km/h
Gust
km/h
Spd
kts
Gust
kts
18/11:30pm 21.7 21.5 18.5 82 2.0 ENE 17 22 9 12 1019.1 1018.3 0.4
18/11:00pm 21.9 21.7 18.5 81 2.1 ENE 17 24 9 13 1019.3 1018.5 0.4
18/10:30pm 22.0 21.3 18.2 79 2.4 ENE 19 24 10 13 1019.3 1018.5 0.4
18/10:00pm 22.4 21.6 18.4 78 2.5 ENE 20 28 11 15 1019.3 1018.5 0.4
18/09:30pm 22.7 21.9 18.5 77 2.7 ENE 20 28 11 15 1019.1 1018.3 0.4
18/09:00pm 23.2 22.0 18.5 75 3.0 ENE 22 32 12 17 1018.9 1018.1 0.4
18/08:30pm 23.6 22.1 18.5 73 3.2 ENE 24 32 13 17 1018.8 1018.0 0.4
18/08:00pm 24.0 22.4 18.4 71 3.6 E 24 33 13 18 1018.1 1017.2 0.4
18/07:30pm 23.2 23.6 18.1 73 3.2 E 13 19 7 10 1017.8 1016.9 0.4
18/07:00pm 23.2 23.5 17.9 72 3.3 E 13 17 7 9 1017.5 1016.6 0.4
18/06:30pm 23.7 24.4 17.9 70 3.7 E 11 15 6 8 1017.5 1016.6 0.4
18/06:00pm 24.2 24.5 17.9 68 4.0 E 13 17 7 9 1017.4 1016.5 0.4
18/05:30pm 25.1 24.3 18.1 65 4.4 E 19 24 10 13 1017.2 1016.3 0.4
18/05:00pm 25.6 24.5 17.8 62 4.9 E 20 28 11 15 1017.0 1016.1 0.4
18/04:30pm 26.6 25.2 17.9 59 5.5 E 22 32 12 17 1016.7 1015.8 0.4
18/04:00pm 27.4 26.1 18.1 57 5.9 ENE 22 30 12 16 1016.8 1015.9 0.4
18/03:30pm 27.2 25.5 18.2 58 5.8 E 24 35 13 19 1016.7 1015.8 0.4
18/03:00pm 27.4 26.5 18.1 57 5.9 ENE 20 32 11 17 1016.6 1015.7 0.4
18/02:30pm 26.9 25.7 19.3 63 4.9 E 24 33 13 18 1016.9 1016.0 0.4
18/02:00pm 26.8 26.2 18.9 62 5.1 E 20 28 11 15 1017.1 1016.2 0.4
18/01:30pm 25.0 25.4 19.8 73 3.4 ESE 17 22 9 12 1017.6 1016.7 0.4
18/01:00pm 22.3 23.9 20.8 91 1.0 ENE 13 17 7 9 1018.4 1017.5 0.4
18/12:30pm 22.9 23.9 21.7 93 0.8 NNE 19 24 10 13 1019.1 1018.3 0.2
18/12:00pm 22.9 22.5 18.9 78 2.5 NE 19 28 10 15 1019.2 1018.4 0.0
18/11:30am 25.8 24.9 18.2 63 4.8 ENE 20 28 11 15 1019.8 1018.9 0.0
18/11:00am 25.4 25.1 18.3 65 4.5 ENE 17 24 9 13 1020.4 1019.5 0.0
18/10:30am 25.5 23.5 18.4 65 4.5 ENE 26 35 14 19 1020.6 1019.7 0.0
18/10:00am 25.8 24.8 19.7 69 4.0 ENE 24 33 13 18 1020.7 1019.8 0.0
18/09:30am 24.0 22.3 18.9 73 3.3 ENE 26 35 14 19 1020.9 1020.0 0.0
18/09:00am 24.0 22.6 18.9 73 3.3 ENE 24 32 13 17 1020.6 1019.7 3.2
18/08:30am 23.5 22.8 19.4 78 2.6 ENE 22 32 12 17 1020.3 1019.4 3.2
18/08:00am 22.7 23.4 19.7 83 1.9 E 15 20 8 11 1020.1 1019.2 3.2
18/07:30am 21.5 22.4 19.2 87 1.5 E 13 17 7 9 1019.8 1018.9 3.2
18/07:00am 20.4 21.0 18.7 90 1.1 E 13 19 7 10 1019.3 1018.5 3.2
18/06:30am 19.8 20.4 18.6 93 0.8 E 13 19 7 10 1019.1 1018.3 3.2
18/06:00am 19.9 18.5 18.7 93 0.8 E 24 32 13 17 1019.2 1018.4 3.2
18/05:30am 20.4 21.6 19.1 92 0.8 ESE 11 17 6 9 1018.8 1018.0 3.0
18/05:00am 20.2 21.3 18.9 92 0.8 ESE 11 15 6 8 1018.6 1017.7 3.0
18/04:30am 19.7 21.1 18.7 94 0.6 E 9 11 5 6 1018.5 1017.6 3.0
18/04:00am 19.9 21.4 18.9 94 0.6 E 9 11 5 6 1018.5 1017.6 3.0
18/03:30am 20.0 21.2 19.0 94 0.6 E 11 17 6 9 1018.5 1017.6 3.0
18/03:00am 20.4 21.3 19.2 93 0.8 E 13 20 7 11 1018.9 1018.1 1.8
18/02:30am 20.2 21.8 19.2 94 0.6 ESE 9 13 5 7 1019.1 1018.3 1.8
18/02:00am 20.1 20.8 18.9 93 0.8 ESE 13 17 7 9 1019.3 1018.5 1.4
18/01:30am 20.3 21.9 19.1 93 0.8 SE 9 11 5 6 1019.9 1019.0 1.4
18/01:00am 20.5 22.0 19.0 91 0.9 E 9 15 5 8 1020.2 1019.3 0.4
18/12:30am 20.4 21.0 18.7 90 1.1 ENE 13 20 7 11 1020.4 1019.5 0.2
18/12:00am 22.1 21.6 17.7 76 2.7 E 17 20 9 11 1020.2 1019.3 0.0
 
Date/Time
EST
Temp
°C
App
Temp
°C
Dew
Point
Rel
Hum
%
Delta-T
°C
Wind Press
QNH
hPa
Press
MSL
hPa
Rain
since 9 am
mm
Dir
 
Spd
km/h
Gust
km/h
Spd
kts
Gust
kts
17/11:30pm 22.5 22.7 17.6 74 3.1 E 13 19 7 10 1020.2 1019.3 0.0
17/11:00pm 22.5 21.3 17.4 73 3.2 ENE 20 32 11 17 1020.1 1019.2 0.0
17/10:30pm 22.7 21.4 17.2 71 3.4 ENE 20 26 11 14 1020.0 1019.1 0.0
17/10:00pm 22.9 21.6 16.9 69 3.7 ENE 19 24 10 13 1020.1 1019.2 0.0
17/09:30pm 22.8 20.9 16.6 68 3.8 ENE 22 30 12 16 1019.9 1019.0 0.0
17/09:00pm 23.3 19.8 16.4 65 4.2 ENE 30 41 16 22 1019.7 1018.8 0.0
17/08:30pm 23.9 21.2 15.7 60 5.0 ENE 24 33 13 18 1019.4 1018.6 0.0
17/08:00pm 24.0 22.2 15.5 59 5.1 ENE 19 26 10 14 1019.1 1018.3 0.0
17/07:30pm 24.7 22.8 15.1 55 5.8 ENE 19 26 10 14 1018.7 1017.9 0.0
17/07:00pm 24.9 24.1 15.2 54 5.9 ENE 13 15 7 8 1018.3 1017.4 0.0
17/06:30pm 24.9 23.1 14.4 52 6.3 ENE 17 24 9 13 1017.9 1017.0 0.0
17/06:00pm 25.9 23.6 14.7 50 6.8 ENE 20 26 11 14 1017.7 1016.8 0.0
17/05:30pm 26.6 23.5 14.4 47 7.4 ENE 24 32 13 17 1017.2 1016.3 0.0
17/05:00pm 27.9 24.9 12.7 39 9.0 E 20 28 11 15 1016.8 1015.9 0.0
17/04:30pm 28.5 26.0 15.1 44 8.2 E 22 35 12 19 1016.6 1015.7 0.0
17/04:00pm 29.3 26.9 13.9 39 9.3 ENE 19 32 10 17 1016.5 1015.6 0.0
17/03:30pm 27.3 25.2 15.3 48 7.4 E 20 32 11 17 1016.8 1015.9 0.0
17/03:00pm 28.8 26.9 15.3 43 8.3 ENE 19 28 10 15 1017.2 1016.3 0.0
17/02:30pm 28.2 26.1 15.1 44 8.0 ENE 20 35 11 19 1017.5 1016.6 0.0
17/02:00pm 26.3 23.7 16.0 53 6.3 ENE 24 33 13 18 1018.0 1017.1 0.0
17/01:30pm 27.4 24.1 16.1 50 7.0 ENE 28 39 15 21 1018.2 1017.3 0.0
17/01:00pm 25.5 22.7 16.4 57 5.6 ENE 26 39 14 21 1018.8 1018.0 0.0
17/12:30pm 26.4 23.6 16.3 53 6.3 E 26 35 14 19 1019.1 1018.3 0.0
17/12:00pm 27.1 24.7 16.4 52 6.7 ENE 24 32 13 17 1019.8 1018.9 0.0
17/11:30am 27.9 25.3 16.8 50 7.0 ENE 26 37 14 20 1020.5 1019.6 0.0
17/11:00am 27.3 24.1 16.3 51 6.8 ENE 28 37 15 20 1021.2 1020.3 0.0
17/10:30am 26.9 24.2 16.5 53 6.5 ENE 26 39 14 21 1021.5 1020.6 0.0
17/10:00am 25.3 22.3 15.9 56 5.8 ENE 26 37 14 20 1022.1 1021.2 0.0
17/09:30am 25.1 22.0 16.5 59 5.3 E 28 35 15 19 1022.4 1021.5 0.0
17/09:00am 25.0 22.2 16.4 59 5.3 E 26 35 14 19 1022.6 1021.7 0.0
17/08:30am 24.3 21.5 16.3 61 4.9 E 26 39 14 21 1022.5 1021.6 0.0
17/08:00am 23.5 21.4 16.3 64 4.4 E 22 32 12 17 1022.2 1021.3 0.0
17/07:30am 22.3 22.1 16.6 70 3.5 ESE 13 17 7 9 1022.1 1021.2 0.0
17/07:00am 21.2 21.0 16.6 75 2.8 ESE 13 17 7 9 1021.8 1020.9 0.0
17/06:30am 19.5 19.5 16.2 81 2.0 SE 11 15 6 8 1021.3 1020.4 0.0
17/06:00am 19.0 19.0 15.3 79 2.2 SE 9 11 5 6 1020.9 1020.0 0.0
17/05:30am 19.9 19.4 16.0 78 2.3 ESE 13 17 7 9 1020.9 1020.0 0.0
17/05:00am 20.2 19.4 16.2 78 2.4 ESE 15 19 8 10 1020.8 1019.9 0.0
17/04:30am 19.8 19.3 15.9 78 2.3 E 13 17 7 9 1020.7 1019.8 0.0
17/04:00am 19.7 19.3 16.3 81 2.1 E 13 17 7 9 1020.6 1019.7 0.0
17/03:30am 19.5 19.5 16.2 81 2.0 E 11 17 6 9 1020.7 1019.8 0.0
17/03:00am 19.8 20.7 16.6 82 1.9 ESE 7 9 4 5 1020.8 1019.9 0.0
17/02:30am 19.9 20.5 16.9 83 1.8 ESE 9 11 5 6 1020.8 1019.9 0.0
17/02:00am 19.8 20.2 16.4 81 2.1 E 9 13 5 7 1021.0 1020.1 0.0
17/01:30am 20.5 20.4 16.9 80 2.2 E 13 19 7 10 1021.2 1020.3 0.0
17/01:00am 20.8 19.5 16.8 78 2.4 E 19 24 10 13 1021.4 1020.5 0.0
17/12:30am 21.0 20.5 16.8 77 2.6 ENE 15 20 8 11 1021.8 1020.9 0.0
17/12:00am 21.1 20.9 16.7 76 2.7 ENE 13 20 7 11 1022.1 1021.2 0.0
 
Date/Time
EST
Temp
°C
App
Temp
°C
Dew
Point
Rel
Hum
%
Delta-T
°C
Wind Press
QNH
hPa
Press
MSL
hPa
Rain
since 9 am
mm
Dir
 
Spd
km/h
Gust
km/h
Spd
kts
Gust
kts
16/11:30pm 21.2 20.6 16.6 75 2.8 ENE 15 22 8 12 1022.2 1021.3 0.0
16/11:00pm 21.5 20.1 16.5 73 3.0 ENE 19 24 10 13 1022.4 1021.5 0.0
16/10:30pm 21.9 20.3 16.6 72 3.2 ENE 20 26 11 14 1022.6 1021.7 0.0
16/10:00pm 22.0 20.7 16.7 72 3.2 ENE 19 24 10 13 1022.6 1021.7 0.0
16/09:30pm 22.2 21.6 16.7 71 3.4 ENE 15 22 8 12 1022.6 1021.7 0.0
16/09:00pm 22.7 21.1 16.5 68 3.8 ENE 20 28 11 15 1022.5 1021.6 0.0
16/08:30pm 23.2 21.1 16.3 65 4.2 ENE 22 30 12 16 1022.2 1021.3 0.0
16/08:00pm 23.4 21.1 16.7 66 4.1 ENE 24 33 13 18 1021.9 1021.0 0.0
16/07:30pm 24.1 22.0 16.1 61 4.9 ENE 22 32 12 17 1021.5 1020.6 0.0
16/07:00pm 24.8 22.6 16.0 58 5.4 ENE 22 32 12 17 1020.9 1020.0 0.0
16/06:30pm 25.7 22.9 15.4 53 6.3 ENE 24 33 13 18 1020.3 1019.4 0.0
16/06:00pm 26.7 24.6 14.8 48 7.2 E 19 35 10 19 1020.1 1019.2 0.0
16/05:30pm 27.3 25.2 12.5 40 8.7 E 15 24 8 13 1019.8 1018.9 0.0
16/05:00pm 28.6 25.6 12.1 36 9.6 ESE 19 28 10 15 1019.6 1018.7 0.0
16/04:30pm 29.2 26.1 12.2 35 10.0 E 20 32 11 17 1019.3 1018.5 0.0
16/04:00pm 29.5 25.8 11.5 33 10.5 E 22 30 12 16 1019.3 1018.5 0.0
16/03:30pm 29.5 26.3 12.0 34 10.3 ENE 20 32 11 17 1019.4 1018.6 0.0
16/03:00pm 29.8 26.2 11.8 33 10.5 E 22 32 12 17 1019.4 1018.6 0.0
16/02:30pm 30.3 27.3 11.8 32 10.9 E 19 33 10 18 1019.7 1018.8 0.0
16/02:00pm 29.6 25.7 10.7 31 10.8 E 22 32 12 17 1020.1 1019.2 0.0
16/01:30pm 29.1 24.7 10.3 31 10.7 E 24 33 13 18 1020.4 1019.5 0.0
16/01:00pm 29.2 24.8 8.8 28 11.3 E 22 32 12 17 1020.8 1019.9 0.0
16/12:30pm 28.9 23.4 9.1 29 11.1 E 28 37 15 20 1021.3 1020.4 0.0
16/12:00pm 29.1 23.7 8.2 27 11.5 E 26 35 14 19 1021.9 1021.0 0.0
16/11:30am 28.6 23.9 9.3 30 10.8 E 24 35 13 19 1022.6 1021.7 0.0
16/11:00am 28.7 24.9 11.3 34 10.0 ENE 22 33 12 18 1023.2 1022.3 0.0
16/10:30am 27.0 23.2 9.8 34 9.6 E 20 33 11 18 1023.7 1022.9 0.0
16/10:00am 27.2 23.8 11.2 36 9.1 E 20 33 11 18 1024.2 1023.4 0.0

Other Formats:

Comma delimited format used in spreadsheet applications
http://www.bom.gov.au/fwo/IDQ60801/IDQ60801.94398.axf

JavaScript Object Notation format (JSON) in row-major order
http://www.bom.gov.au/fwo/IDQ60801/IDQ60801.94398.json